sensor_id;sensor_type;location;lat;lon;timestamp;temperature;humidity
28297;DHT22;62078;49.366;8.172;2022-09-17T00:00:59;20.70;54.70
28297;DHT22;62078;49.366;8.172;2022-09-17T00:03:25;20.70;54.70
28297;DHT22;62078;49.366;8.172;2022-09-17T00:06:06;20.70;54.70
28297;DHT22;62078;49.366;8.172;2022-09-17T00:08:33;20.70;54.70
28297;DHT22;62078;49.366;8.172;2022-09-17T00:11:06;20.70;54.70
28297;DHT22;62078;49.366;8.172;2022-09-17T00:13:32;20.70;54.70
28297;DHT22;62078;49.366;8.172;2022-09-17T00:15:58;20.70;54.70
28297;DHT22;62078;49.366;8.172;2022-09-17T00:18:24;20.70;54.60
28297;DHT22;62078;49.366;8.172;2022-09-17T00:20:49;20.70;54.70
28297;DHT22;62078;49.366;8.172;2022-09-17T00:23:15;20.70;54.60
28297;DHT22;62078;49.366;8.172;2022-09-17T00:25:43;20.70;54.70
28297;DHT22;62078;49.366;8.172;2022-09-17T00:28:11;20.60;54.50
28297;DHT22;62078;49.366;8.172;2022-09-17T00:30:40;20.70;54.50
28297;DHT22;62078;49.366;8.172;2022-09-17T00:33:06;20.70;54.60
28297;DHT22;62078;49.366;8.172;2022-09-17T00:35:32;20.60;54.50
28297;DHT22;62078;49.366;8.172;2022-09-17T00:37:57;20.70;54.60
28297;DHT22;62078;49.366;8.172;2022-09-17T00:40:23;20.70;54.60
28297;DHT22;62078;49.366;8.172;2022-09-17T00:42:49;20.60;54.50
28297;DHT22;62078;49.366;8.172;2022-09-17T00:45:17;20.70;54.60
28297;DHT22;62078;49.366;8.172;2022-09-17T00:47:54;20.70;54.60
28297;DHT22;62078;49.366;8.172;2022-09-17T00:50:42;20.60;54.50
28297;DHT22;62078;49.366;8.172;2022-09-17T00:53:12;20.60;54.50
28297;DHT22;62078;49.366;8.172;2022-09-17T00:55:41;20.60;54.50
28297;DHT22;62078;49.366;8.172;2022-09-17T00:58:10;20.60;54.50
28297;DHT22;62078;49.366;8.172;2022-09-17T01:00:38;20.70;54.60
28297;DHT22;62078;49.366;8.172;2022-09-17T01:03:04;20.60;54.50
28297;DHT22;62078;49.366;8.172;2022-09-17T01:05:32;20.60;54.50
28297;DHT22;62078;49.366;8.172;2022-09-17T01:08:15;20.60;54.50
28297;DHT22;62078;49.366;8.172;2022-09-17T01:10:51;20.60;54.60
28297;DHT22;62078;49.366;8.172;2022-09-17T01:25:06;20.60;54.50
28297;DHT22;62078;49.366;8.172;2022-09-17T01:30:16;20.60;54.60
28297;DHT22;62078;49.366;8.172;2022-09-17T01:33:49;20.60;54.60
28297;DHT22;62078;49.366;8.172;2022-09-17T01:36:05;20.60;54.60
28297;DHT22;62078;49.366;8.172;2022-09-17T01:41:52;20.60;54.70
28297;DHT22;62078;49.366;8.172;2022-09-17T01:44:30;20.60;54.60
28297;DHT22;62078;49.366;8.172;2022-09-17T01:47:14;20.60;54.60
28297;DHT22;62078;49.366;8.172;2022-09-17T01:49:41;20.60;54.70
28297;DHT22;62078;49.366;8.172;2022-09-17T01:52:11;20.60;54.60
28297;DHT22;62078;49.366;8.172;2022-09-17T01:54:43;20.60;54.60
28297;DHT22;62078;49.366;8.172;2022-09-17T01:57:22;20.60;54.60
28297;DHT22;62078;49.366;8.172;2022-09-17T02:00:06;20.60;54.60
28297;DHT22;62078;49.366;8.172;2022-09-17T02:02:49;20.60;54.50
28297;DHT22;62078;49.366;8.172;2022-09-17T02:07:51;20.60;54.60
28297;DHT22;62078;49.366;8.172;2022-09-17T02:10:21;20.60;54.60
28297;DHT22;62078;49.366;8.172;2022-09-17T02:13:10;20.60;54.60
28297;DHT22;62078;49.366;8.172;2022-09-17T02:15:46;20.60;54.60
28297;DHT22;62078;49.366;8.172;2022-09-17T02:18:31;20.60;54.60
28297;DHT22;62078;49.366;8.172;2022-09-17T02:23:35;20.60;54.60
28297;DHT22;62078;49.366;8.172;2022-09-17T02:26:11;20.60;54.60
28297;DHT22;62078;49.366;8.172;2022-09-17T02:28:50;20.60;54.60
28297;DHT22;62078;49.366;8.172;2022-09-17T02:31:18;20.60;54.70
28297;DHT22;62078;49.366;8.172;2022-09-17T02:33:48;20.60;54.60
28297;DHT22;62078;49.366;8.172;2022-09-17T02:36:14;20.60;54.60
28297;DHT22;62078;49.366;8.172;2022-09-17T02:38:43;20.50;54.60
28297;DHT22;62078;49.366;8.172;2022-09-17T02:41:19;20.60;54.60
28297;DHT22;62078;49.366;8.172;2022-09-17T02:46:48;20.60;54.60
28297;DHT22;62078;49.366;8.172;2022-09-17T02:57:37;20.50;54.60
28297;DHT22;62078;49.366;8.172;2022-09-17T03:00:17;20.60;54.70
28297;DHT22;62078;49.366;8.172;2022-09-17T03:03:29;20.50;54.60
28297;DHT22;62078;49.366;8.172;2022-09-17T03:05:36;20.60;54.60
28297;DHT22;62078;49.366;8.172;2022-09-17T03:08:03;20.50;54.60
28297;DHT22;62078;49.366;8.172;2022-09-17T03:10:32;20.50;54.60
28297;DHT22;62078;49.366;8.172;2022-09-17T03:12:58;20.50;54.60
28297;DHT22;62078;49.366;8.172;2022-09-17T03:15:24;20.50;54.60
28297;DHT22;62078;49.366;8.172;2022-09-17T03:17:49;20.50;54.60
28297;DHT22;62078;49.366;8.172;2022-09-17T03:20:15;20.50;54.60
28297;DHT22;62078;49.366;8.172;2022-09-17T03:22:41;20.50;54.60
28297;DHT22;62078;49.366;8.172;2022-09-17T03:25:07;20.50;54.60
28297;DHT22;62078;49.366;8.172;2022-09-17T03:27:33;20.50;54.60
28297;DHT22;62078;49.366;8.172;2022-09-17T03:29:59;20.50;54.60
28297;DHT22;62078;49.366;8.172;2022-09-17T03:32:25;20.50;54.60
28297;DHT22;62078;49.366;8.172;2022-09-17T03:34:50;20.50;54.60
28297;DHT22;62078;49.366;8.172;2022-09-17T03:37:16;20.50;54.60
28297;DHT22;62078;49.366;8.172;2022-09-17T03:39:42;20.50;54.60
28297;DHT22;62078;49.366;8.172;2022-09-17T03:42:07;20.50;54.60
28297;DHT22;62078;49.366;8.172;2022-09-17T03:44:33;20.50;54.60
28297;DHT22;62078;49.366;8.172;2022-09-17T03:46:59;20.50;54.60
28297;DHT22;62078;49.366;8.172;2022-09-17T03:49:24;20.50;54.60
28297;DHT22;62078;49.366;8.172;2022-09-17T03:51:50;20.50;54.60
28297;DHT22;62078;49.366;8.172;2022-09-17T03:54:16;20.50;54.60
28297;DHT22;62078;49.366;8.172;2022-09-17T03:56:42;20.50;54.60
28297;DHT22;62078;49.366;8.172;2022-09-17T03:59:07;20.50;54.60
28297;DHT22;62078;49.366;8.172;2022-09-17T04:01:33;20.50;54.60
28297;DHT22;62078;49.366;8.172;2022-09-17T04:04:01;20.50;54.70
28297;DHT22;62078;49.366;8.172;2022-09-17T04:06:26;20.50;54.60
28297;DHT22;62078;49.366;8.172;2022-09-17T04:08:52;20.50;54.60
28297;DHT22;62078;49.366;8.172;2022-09-17T04:11:18;20.50;54.60
28297;DHT22;62078;49.366;8.172;2022-09-17T04:13:43;20.50;54.60
28297;DHT22;62078;49.366;8.172;2022-09-17T04:16:09;20.50;54.60
28297;DHT22;62078;49.366;8.172;2022-09-17T04:18:35;20.50;54.60
28297;DHT22;62078;49.366;8.172;2022-09-17T04:21:01;20.50;54.60
28297;DHT22;62078;49.366;8.172;2022-09-17T04:23:27;20.50;54.60
28297;DHT22;62078;49.366;8.172;2022-09-17T04:25:52;20.40;54.60
28297;DHT22;62078;49.366;8.172;2022-09-17T04:28:18;20.50;54.60
28297;DHT22;62078;49.366;8.172;2022-09-17T04:30:43;20.40;54.50
28297;DHT22;62078;49.366;8.172;2022-09-17T04:33:10;20.40;54.50
28297;DHT22;62078;49.366;8.172;2022-09-17T04:35:35;20.40;54.60
28297;DHT22;62078;49.366;8.172;2022-09-17T04:38:01;20.40;54.50
28297;DHT22;62078;49.366;8.172;2022-09-17T04:40:27;20.40;54.50
28297;DHT22;62078;49.366;8.172;2022-09-17T04:42:55;20.40;54.50
28297;DHT22;62078;49.366;8.172;2022-09-17T04:45:22;20.40;54.60
28297;DHT22;62078;49.366;8.172;2022-09-17T04:47:48;20.40;54.50
28297;DHT22;62078;49.366;8.172;2022-09-17T04:50:19;20.40;54.60
28297;DHT22;62078;49.366;8.172;2022-09-17T04:52:45;20.40;54.60
28297;DHT22;62078;49.366;8.172;2022-09-17T04:55:12;20.40;54.50
28297;DHT22;62078;49.366;8.172;2022-09-17T04:57:38;20.40;54.60
28297;DHT22;62078;49.366;8.172;2022-09-17T05:00:05;20.40;54.50
28297;DHT22;62078;49.366;8.172;2022-09-17T05:02:34;20.40;54.60
28297;DHT22;62078;49.366;8.172;2022-09-17T05:05:00;20.40;54.50
28297;DHT22;62078;49.366;8.172;2022-09-17T05:07:25;20.40;54.60
28297;DHT22;62078;49.366;8.172;2022-09-17T05:09:51;20.40;54.60
28297;DHT22;62078;49.366;8.172;2022-09-17T05:12:17;20.40;54.60
28297;DHT22;62078;49.366;8.172;2022-09-17T05:14:43;20.40;54.60
28297;DHT22;62078;49.366;8.172;2022-09-17T05:17:09;20.40;54.60
28297;DHT22;62078;49.366;8.172;2022-09-17T05:19:35;20.40;54.60
28297;DHT22;62078;49.366;8.172;2022-09-17T05:22:00;20.40;54.60
28297;DHT22;62078;49.366;8.172;2022-09-17T05:24:26;20.40;54.60
28297;DHT22;62078;49.366;8.172;2022-09-17T05:26:52;20.40;54.60
28297;DHT22;62078;49.366;8.172;2022-09-17T05:29:18;20.40;54.60
28297;DHT22;62078;49.366;8.172;2022-09-17T05:31:43;20.40;54.60
28297;DHT22;62078;49.366;8.172;2022-09-17T05:34:09;20.40;54.60
28297;DHT22;62078;49.366;8.172;2022-09-17T05:36:35;20.40;54.60
28297;DHT22;62078;49.366;8.172;2022-09-17T05:39:01;20.40;54.60
28297;DHT22;62078;49.366;8.172;2022-09-17T05:41:26;20.40;54.60
28297;DHT22;62078;49.366;8.172;2022-09-17T05:43:52;20.40;54.60
28297;DHT22;62078;49.366;8.172;2022-09-17T05:46:18;20.40;54.60
28297;DHT22;62078;49.366;8.172;2022-09-17T05:48:43;20.40;54.60
28297;DHT22;62078;49.366;8.172;2022-09-17T05:51:09;20.40;54.60
28297;DHT22;62078;49.366;8.172;2022-09-17T05:53:36;20.40;54.60
28297;DHT22;62078;49.366;8.172;2022-09-17T07:11:16;20.40;54.60
28297;DHT22;62078;49.366;8.172;2022-09-17T07:13:42;21.30;49.40
28297;DHT22;62078;49.366;8.172;2022-09-17T07:16:09;21.30;49.30
28297;DHT22;62078;49.366;8.172;2022-09-17T07:18:34;21.30;49.20
28297;DHT22;62078;49.366;8.172;2022-09-17T07:21:03;21.30;49.40
28297;DHT22;62078;49.366;8.172;2022-09-17T07:23:30;21.40;49.50
28297;DHT22;62078;49.366;8.172;2022-09-17T07:26:00;21.50;49.30
28297;DHT22;62078;49.366;8.172;2022-09-17T07:28:26;21.60;49.20
28297;DHT22;62078;49.366;8.172;2022-09-17T07:30:53;21.60;49.20
28297;DHT22;62078;49.366;8.172;2022-09-17T07:33:22;21.60;48.90
28297;DHT22;62078;49.366;8.172;2022-09-17T07:35:56;21.70;48.90
28297;DHT22;62078;49.366;8.172;2022-09-17T07:38:22;21.70;48.70
28297;DHT22;62078;49.366;8.172;2022-09-17T07:40:59;21.70;48.80
28297;DHT22;62078;49.366;8.172;2022-09-17T07:43:26;21.80;48.70
28297;DHT22;62078;49.366;8.172;2022-09-17T07:45:52;21.80;48.50
28297;DHT22;62078;49.366;8.172;2022-09-17T07:48:19;21.80;48.30
28297;DHT22;62078;49.366;8.172;2022-09-17T07:50:45;21.80;48.10
28297;DHT22;62078;49.366;8.172;2022-09-17T07:53:12;21.90;48.20
28297;DHT22;62078;49.366;8.172;2022-09-17T07:55:37;21.90;48.30
28297;DHT22;62078;49.366;8.172;2022-09-17T07:58:03;21.90;48.10
28297;DHT22;62078;49.366;8.172;2022-09-17T08:00:29;21.90;48.00
28297;DHT22;62078;49.366;8.172;2022-09-17T08:02:55;21.90;48.90
28297;DHT22;62078;49.366;8.172;2022-09-17T08:05:22;22.00;48.30
28297;DHT22;62078;49.366;8.172;2022-09-17T08:07:49;22.00;48.60
28297;DHT22;62078;49.366;8.172;2022-09-17T08:10:16;22.00;48.70
28297;DHT22;62078;49.366;8.172;2022-09-17T08:12:48;22.10;48.90
28297;DHT22;62078;49.366;8.172;2022-09-17T08:15:15;22.10;48.40
28297;DHT22;62078;49.366;8.172;2022-09-17T08:17:43;22.20;48.00
28297;DHT22;62078;49.366;8.172;2022-09-17T08:20:09;22.20;48.20
28297;DHT22;62078;49.366;8.172;2022-09-17T08:22:35;22.20;48.00
28297;DHT22;62078;49.366;8.172;2022-09-17T08:25:00;22.30;47.60
28297;DHT22;62078;49.366;8.172;2022-09-17T08:27:29;22.40;47.90
28297;DHT22;62078;49.366;8.172;2022-09-17T08:29:55;22.50;47.90
28297;DHT22;62078;49.366;8.172;2022-09-17T08:32:21;22.40;47.80
28297;DHT22;62078;49.366;8.172;2022-09-17T08:34:47;22.40;47.90
28297;DHT22;62078;49.366;8.172;2022-09-17T08:37:13;22.40;48.10
28297;DHT22;62078;49.366;8.172;2022-09-17T08:39:39;22.30;48.10
28297;DHT22;62078;49.366;8.172;2022-09-17T08:44:55;22.20;48.30
28297;DHT22;62078;49.366;8.172;2022-09-17T08:47:32;22.10;48.40
28297;DHT22;62078;49.366;8.172;2022-09-17T08:50:04;22.10;48.70
28297;DHT22;62078;49.366;8.172;2022-09-17T08:55:42;22.10;48.60
28297;DHT22;62078;49.366;8.172;2022-09-17T08:58:40;22.10;48.80
28297;DHT22;62078;49.366;8.172;2022-09-17T09:04:19;22.00;48.30
28297;DHT22;62078;49.366;8.172;2022-09-17T09:06:54;22.00;48.70
28297;DHT22;62078;49.366;8.172;2022-09-17T09:09:26;22.00;48.70
28297;DHT22;62078;49.366;8.172;2022-09-17T09:12:00;22.10;48.70
28297;DHT22;62078;49.366;8.172;2022-09-17T09:14:32;22.00;48.50
28297;DHT22;62078;49.366;8.172;2022-09-17T09:17:07;22.00;48.40
28297;DHT22;62078;49.366;8.172;2022-09-17T09:19:41;22.00;48.60
28297;DHT22;62078;49.366;8.172;2022-09-17T09:22:45;22.00;48.40
28297;DHT22;62078;49.366;8.172;2022-09-17T09:33:29;22.00;48.30
28297;DHT22;62078;49.366;8.172;2022-09-17T09:35:55;22.00;48.50
28297;DHT22;62078;49.366;8.172;2022-09-17T09:38:46;22.00;48.70
28297;DHT22;62078;49.366;8.172;2022-09-17T09:41:16;22.00;48.40
28297;DHT22;62078;49.366;8.172;2022-09-17T09:46:57;22.10;47.90
28297;DHT22;62078;49.366;8.172;2022-09-17T10:00:39;21.70;46.20
28297;DHT22;62078;49.366;8.172;2022-09-17T10:03:31;21.70;46.10
28297;DHT22;62078;49.366;8.172;2022-09-17T10:06:02;21.70;46.00
28297;DHT22;62078;49.366;8.172;2022-09-17T10:08:40;21.70;46.00
28297;DHT22;62078;49.366;8.172;2022-09-17T10:11:17;21.70;46.00
28297;DHT22;62078;49.366;8.172;2022-09-17T10:13:44;21.60;45.90
28297;DHT22;62078;49.366;8.172;2022-09-17T10:16:17;21.60;45.80
28297;DHT22;62078;49.366;8.172;2022-09-17T10:18:43;21.60;45.80
28297;DHT22;62078;49.366;8.172;2022-09-17T10:21:19;21.60;45.80
28297;DHT22;62078;49.366;8.172;2022-09-17T10:23:46;21.70;45.50
28297;DHT22;62078;49.366;8.172;2022-09-17T10:26:35;21.60;45.20
28297;DHT22;62078;49.366;8.172;2022-09-17T10:29:05;21.60;45.30
28297;DHT22;62078;49.366;8.172;2022-09-17T10:36:47;21.50;44.10
28297;DHT22;62078;49.366;8.172;2022-09-17T10:41:55;21.40;44.20
28297;DHT22;62078;49.366;8.172;2022-09-17T10:44:23;21.40;44.90
28297;DHT22;62078;49.366;8.172;2022-09-17T10:46:50;21.30;45.60
28297;DHT22;62078;49.366;8.172;2022-09-17T10:49:38;21.30;46.30
28297;DHT22;62078;49.366;8.172;2022-09-17T10:52:24;21.30;47.00
28297;DHT22;62078;49.366;8.172;2022-09-17T11:00:24;21.30;47.40
28297;DHT22;62078;49.366;8.172;2022-09-17T11:11:16;21.30;47.80
28297;DHT22;62078;49.366;8.172;2022-09-17T11:16:44;21.30;48.00
28297;DHT22;62078;49.366;8.172;2022-09-17T11:19:19;21.30;48.30
28297;DHT22;62078;49.366;8.172;2022-09-17T11:22:50;21.30;48.30
28297;DHT22;62078;49.366;8.172;2022-09-17T11:36:40;21.30;48.90
28297;DHT22;62078;49.366;8.172;2022-09-17T11:39:23;21.30;48.90
28297;DHT22;62078;49.366;8.172;2022-09-17T11:41:51;21.30;48.90
28297;DHT22;62078;49.366;8.172;2022-09-17T11:44:34;21.30;48.80
28297;DHT22;62078;49.366;8.172;2022-09-17T11:47:09;21.30;48.90
28297;DHT22;62078;49.366;8.172;2022-09-17T11:49:45;21.30;48.80
28297;DHT22;62078;49.366;8.172;2022-09-17T11:52:26;21.30;48.60
28297;DHT22;62078;49.366;8.172;2022-09-17T11:55:10;21.20;49.30
28297;DHT22;62078;49.366;8.172;2022-09-17T11:57:43;21.20;48.70
28297;DHT22;62078;49.366;8.172;2022-09-17T12:00:18;21.20;48.50
28297;DHT22;62078;49.366;8.172;2022-09-17T12:02:56;21.20;48.50
28297;DHT22;62078;49.366;8.172;2022-09-17T12:05:47;21.20;48.40
28297;DHT22;62078;49.366;8.172;2022-09-17T12:14:02;21.10;48.40
28297;DHT22;62078;49.366;8.172;2022-09-17T12:16:43;21.10;48.50
28297;DHT22;62078;49.366;8.172;2022-09-17T12:19:18;21.10;48.60
28297;DHT22;62078;49.366;8.172;2022-09-17T12:21:53;21.10;48.50
28297;DHT22;62078;49.366;8.172;2022-09-17T12:24:26;21.10;48.60
28297;DHT22;62078;49.366;8.172;2022-09-17T12:30:13;21.20;48.50
28297;DHT22;62078;49.366;8.172;2022-09-17T12:35:27;21.10;48.50
28297;DHT22;62078;49.366;8.172;2022-09-17T12:50:03;21.10;48.70
28297;DHT22;62078;49.366;8.172;2022-09-17T12:58:24;21.00;48.70
28297;DHT22;62078;49.366;8.172;2022-09-17T13:01:07;21.00;48.80
28297;DHT22;62078;49.366;8.172;2022-09-17T13:03:42;21.10;48.90
28297;DHT22;62078;49.366;8.172;2022-09-17T13:08:54;21.10;48.90
28297;DHT22;62078;49.366;8.172;2022-09-17T13:14:23;21.10;48.90
28297;DHT22;62078;49.366;8.172;2022-09-17T13:16:59;21.10;49.10
28297;DHT22;62078;49.366;8.172;2022-09-17T13:19:40;21.10;49.10
28297;DHT22;62078;49.366;8.172;2022-09-17T13:22:15;21.10;49.10
28297;DHT22;62078;49.366;8.172;2022-09-17T13:24:42;21.10;49.00
28297;DHT22;62078;49.366;8.172;2022-09-17T13:27:23;21.10;48.80
28297;DHT22;62078;49.366;8.172;2022-09-17T13:37:57;21.10;48.90
28297;DHT22;62078;49.366;8.172;2022-09-17T13:40:42;21.10;48.60
28297;DHT22;62078;49.366;8.172;2022-09-17T13:43:11;21.10;48.50
28297;DHT22;62078;49.366;8.172;2022-09-17T13:48:30;21.00;48.20
28297;DHT22;62078;49.366;8.172;2022-09-17T13:51:49;21.00;48.00
28297;DHT22;62078;49.366;8.172;2022-09-17T13:54:09;21.00;47.90
28297;DHT22;62078;49.366;8.172;2022-09-17T13:56:41;21.00;48.10
28297;DHT22;62078;49.366;8.172;2022-09-17T13:59:26;21.00;48.10
28297;DHT22;62078;49.366;8.172;2022-09-17T14:02:25;21.10;48.60
28297;DHT22;62078;49.366;8.172;2022-09-17T14:05:28;21.10;47.70
28297;DHT22;62078;49.366;8.172;2022-09-17T14:08:28;21.10;47.40
28297;DHT22;62078;49.366;8.172;2022-09-17T14:10:57;21.10;47.60
28297;DHT22;62078;49.366;8.172;2022-09-17T14:13:39;21.10;47.60
28297;DHT22;62078;49.366;8.172;2022-09-17T14:18:58;21.10;47.40
28297;DHT22;62078;49.366;8.172;2022-09-17T14:21:31;21.10;47.50
28297;DHT22;62078;49.366;8.172;2022-09-17T14:24:02;21.10;47.30
28297;DHT22;62078;49.366;8.172;2022-09-17T14:31:51;21.10;47.10
28297;DHT22;62078;49.366;8.172;2022-09-17T14:34:22;21.10;47.00
28297;DHT22;62078;49.366;8.172;2022-09-17T14:36:50;21.00;46.60
28297;DHT22;62078;49.366;8.172;2022-09-17T14:39:33;21.00;46.70
28297;DHT22;62078;49.366;8.172;2022-09-17T14:42:00;21.00;46.60
28297;DHT22;62078;49.366;8.172;2022-09-17T14:44:27;21.00;46.90
28297;DHT22;62078;49.366;8.172;2022-09-17T14:47:11;21.00;46.90
28297;DHT22;62078;49.366;8.172;2022-09-17T14:49:39;21.00;46.70
28297;DHT22;62078;49.366;8.172;2022-09-17T14:52:25;21.00;46.90
28297;DHT22;62078;49.366;8.172;2022-09-17T14:57:35;21.00;47.50
28297;DHT22;62078;49.366;8.172;2022-09-17T15:00:03;21.10;47.50
28297;DHT22;62078;49.366;8.172;2022-09-17T15:02:40;21.10;47.70
28297;DHT22;62078;49.366;8.172;2022-09-17T15:05:24;21.00;47.80
28297;DHT22;62078;49.366;8.172;2022-09-17T15:08:03;21.00;48.00
28297;DHT22;62078;49.366;8.172;2022-09-17T15:10:33;21.10;48.10
28297;DHT22;62078;49.366;8.172;2022-09-17T15:13:00;21.00;48.20
28297;DHT22;62078;49.366;8.172;2022-09-17T15:15:26;21.00;48.30
28297;DHT22;62078;49.366;8.172;2022-09-17T15:17:53;21.00;48.40
28297;DHT22;62078;49.366;8.172;2022-09-17T15:20:25;21.10;48.60
28297;DHT22;62078;49.366;8.172;2022-09-17T15:23:22;21.00;48.60
28297;DHT22;62078;49.366;8.172;2022-09-17T15:25:51;21.10;48.80
28297;DHT22;62078;49.366;8.172;2022-09-17T15:28:38;21.10;48.80
28297;DHT22;62078;49.366;8.172;2022-09-17T15:31:15;21.10;48.90
28297;DHT22;62078;49.366;8.172;2022-09-17T15:33:42;21.10;49.00
28297;DHT22;62078;49.366;8.172;2022-09-17T15:36:20;21.10;49.00
28297;DHT22;62078;49.366;8.172;2022-09-17T15:38:46;21.10;49.10
28297;DHT22;62078;49.366;8.172;2022-09-17T15:41:33;21.10;49.10
28297;DHT22;62078;49.366;8.172;2022-09-17T15:44:21;21.10;49.30
28297;DHT22;62078;49.366;8.172;2022-09-17T15:46:47;21.10;49.30
28297;DHT22;62078;49.366;8.172;2022-09-17T15:49:33;21.10;49.30
28297;DHT22;62078;49.366;8.172;2022-09-17T15:52:38;21.10;49.40
28297;DHT22;62078;49.366;8.172;2022-09-17T15:55:05;21.10;49.50
28297;DHT22;62078;49.366;8.172;2022-09-17T15:57:31;21.10;49.50
28297;DHT22;62078;49.366;8.172;2022-09-17T16:00:11;21.10;49.60
28297;DHT22;62078;49.366;8.172;2022-09-17T16:02:38;21.10;49.70
28297;DHT22;62078;49.366;8.172;2022-09-17T16:07:43;21.10;49.80
28297;DHT22;62078;49.366;8.172;2022-09-17T16:10:11;21.10;49.80
28297;DHT22;62078;49.366;8.172;2022-09-17T16:12:37;21.10;49.80
28297;DHT22;62078;49.366;8.172;2022-09-17T16:15:04;21.10;49.90
28297;DHT22;62078;49.366;8.172;2022-09-17T16:19:59;21.10;50.00
28297;DHT22;62078;49.366;8.172;2022-09-17T16:22:29;21.10;50.00
28297;DHT22;62078;49.366;8.172;2022-09-17T16:24:55;21.10;50.10
28297;DHT22;62078;49.366;8.172;2022-09-17T16:27:27;21.10;50.20
28297;DHT22;62078;49.366;8.172;2022-09-17T16:30:05;21.00;50.10
28297;DHT22;62078;49.366;8.172;2022-09-17T16:32:33;21.10;50.30
28297;DHT22;62078;49.366;8.172;2022-09-17T16:34:59;21.00;50.20
28297;DHT22;62078;49.366;8.172;2022-09-17T16:37:25;21.00;50.20
28297;DHT22;62078;49.366;8.172;2022-09-17T16:39:51;21.10;50.30
28297;DHT22;62078;49.366;8.172;2022-09-17T16:42:17;21.10;50.30
28297;DHT22;62078;49.366;8.172;2022-09-17T16:44:43;21.00;50.30
28297;DHT22;62078;49.366;8.172;2022-09-17T16:47:08;21.00;50.30
28297;DHT22;62078;49.366;8.172;2022-09-17T16:49:34;21.00;50.40
28297;DHT22;62078;49.366;8.172;2022-09-17T16:52:00;21.00;50.40
28297;DHT22;62078;49.366;8.172;2022-09-17T16:54:26;21.00;50.40
28297;DHT22;62078;49.366;8.172;2022-09-17T16:56:52;21.00;50.40
28297;DHT22;62078;49.366;8.172;2022-09-17T16:59:18;21.00;50.80
28297;DHT22;62078;49.366;8.172;2022-09-17T17:01:43;20.90;50.80
28297;DHT22;62078;49.366;8.172;2022-09-17T17:04:09;20.90;51.00
28297;DHT22;62078;49.366;8.172;2022-09-17T17:06:35;20.90;50.90
28297;DHT22;62078;49.366;8.172;2022-09-17T17:09:00;21.00;51.00
28297;DHT22;62078;49.366;8.172;2022-09-17T17:11:27;21.00;51.00
28297;DHT22;62078;49.366;8.172;2022-09-17T17:13:54;21.00;51.00
28297;DHT22;62078;49.366;8.172;2022-09-17T17:16:23;21.00;51.00
28297;DHT22;62078;49.366;8.172;2022-09-17T17:18:50;21.00;51.10
28297;DHT22;62078;49.366;8.172;2022-09-17T17:21:18;21.00;51.10
28297;DHT22;62078;49.366;8.172;2022-09-17T17:23:45;21.00;51.40
28297;DHT22;62078;49.366;8.172;2022-09-17T17:26:13;20.90;51.20
28297;DHT22;62078;49.366;8.172;2022-09-17T17:28:39;20.90;50.90
28297;DHT22;62078;49.366;8.172;2022-09-17T17:31:05;20.80;50.90
28297;DHT22;62078;49.366;8.172;2022-09-17T17:33:30;20.70;51.10
28297;DHT22;62078;49.366;8.172;2022-09-17T17:36:02;20.70;51.30
28297;DHT22;62078;49.366;8.172;2022-09-17T17:38:28;20.70;51.10
28297;DHT22;62078;49.366;8.172;2022-09-17T17:41:09;20.80;51.10
28297;DHT22;62078;49.366;8.172;2022-09-17T17:43:35;20.70;51.00
28297;DHT22;62078;49.366;8.172;2022-09-17T17:46:04;20.80;51.00
28297;DHT22;62078;49.366;8.172;2022-09-17T17:48:29;20.80;51.00
28297;DHT22;62078;49.366;8.172;2022-09-17T17:51:01;20.80;51.00
28297;DHT22;62078;49.366;8.172;2022-09-17T17:53:27;20.80;51.00
28297;DHT22;62078;49.366;8.172;2022-09-17T17:56:01;20.80;51.00
28297;DHT22;62078;49.366;8.172;2022-09-17T17:58:27;20.80;51.00
28297;DHT22;62078;49.366;8.172;2022-09-17T18:00:53;20.80;51.00
28297;DHT22;62078;49.366;8.172;2022-09-17T18:03:19;20.80;51.10
28297;DHT22;62078;49.366;8.172;2022-09-17T18:05:52;20.80;51.00
28297;DHT22;62078;49.366;8.172;2022-09-17T18:08:23;20.80;51.10
28297;DHT22;62078;49.366;8.172;2022-09-17T18:10:54;20.80;51.10
28297;DHT22;62078;49.366;8.172;2022-09-17T18:13:21;20.80;51.10
28297;DHT22;62078;49.366;8.172;2022-09-17T18:15:54;20.80;51.20
28297;DHT22;62078;49.366;8.172;2022-09-17T18:18:21;20.80;51.20
28297;DHT22;62078;49.366;8.172;2022-09-17T18:20:48;20.80;51.20
28297;DHT22;62078;49.366;8.172;2022-09-17T18:23:13;20.80;51.20
28297;DHT22;62078;49.366;8.172;2022-09-17T18:25:39;20.80;51.30
28297;DHT22;62078;49.366;8.172;2022-09-17T18:28:05;20.80;51.30
28297;DHT22;62078;49.366;8.172;2022-09-17T18:30:30;20.80;51.30
28297;DHT22;62078;49.366;8.172;2022-09-17T18:32:57;20.80;51.40
28297;DHT22;62078;49.366;8.172;2022-09-17T18:35:22;20.80;51.40
28297;DHT22;62078;49.366;8.172;2022-09-17T18:37:48;20.80;51.40
28297;DHT22;62078;49.366;8.172;2022-09-17T18:40:14;20.80;51.40
28297;DHT22;62078;49.366;8.172;2022-09-17T18:42:40;20.80;51.40
28297;DHT22;62078;49.366;8.172;2022-09-17T18:45:06;20.80;51.40
28297;DHT22;62078;49.366;8.172;2022-09-17T18:47:32;20.80;51.50
28297;DHT22;62078;49.366;8.172;2022-09-17T18:49:57;20.80;51.50
28297;DHT22;62078;49.366;8.172;2022-09-17T18:52:23;20.80;51.40
28297;DHT22;62078;49.366;8.172;2022-09-17T18:54:49;20.80;51.40
28297;DHT22;62078;49.366;8.172;2022-09-17T18:57:14;20.80;51.50
28297;DHT22;62078;49.366;8.172;2022-09-17T18:59:40;20.80;51.50
28297;DHT22;62078;49.366;8.172;2022-09-17T19:02:07;20.80;51.50
28297;DHT22;62078;49.366;8.172;2022-09-17T19:04:33;20.80;51.50
28297;DHT22;62078;49.366;8.172;2022-09-17T19:06:59;20.80;51.50
28297;DHT22;62078;49.366;8.172;2022-09-17T19:09:25;20.80;51.60
28297;DHT22;62078;49.366;8.172;2022-09-17T19:11:50;20.80;51.60
28297;DHT22;62078;49.366;8.172;2022-09-17T19:14:16;20.80;51.60
28297;DHT22;62078;49.366;8.172;2022-09-17T19:16:42;20.80;51.60
28297;DHT22;62078;49.366;8.172;2022-09-17T19:19:08;20.80;51.50
28297;DHT22;62078;49.366;8.172;2022-09-17T19:21:34;20.80;51.60
28297;DHT22;62078;49.366;8.172;2022-09-17T19:24:00;20.80;51.50
28297;DHT22;62078;49.366;8.172;2022-09-17T19:26:27;20.80;51.60
28297;DHT22;62078;49.366;8.172;2022-09-17T19:28:54;20.80;51.60
28297;DHT22;62078;49.366;8.172;2022-09-17T19:31:20;20.80;51.60
28297;DHT22;62078;49.366;8.172;2022-09-17T19:33:46;20.80;51.60
28297;DHT22;62078;49.366;8.172;2022-09-17T19:36:14;20.80;51.70
28297;DHT22;62078;49.366;8.172;2022-09-17T19:38:40;20.80;51.60
28297;DHT22;62078;49.366;8.172;2022-09-17T19:41:18;20.70;51.70
28297;DHT22;62078;49.366;8.172;2022-09-17T19:43:45;20.70;51.70
28297;DHT22;62078;49.366;8.172;2022-09-17T19:46:16;20.70;51.70
28297;DHT22;62078;49.366;8.172;2022-09-17T19:48:47;20.70;51.70
28297;DHT22;62078;49.366;8.172;2022-09-17T19:51:14;20.70;51.70